sensor_id;sensor_type;location;lat;lon;timestamp;pressure;altitude;pressure_sealevel;temperature;humidity
69127;BME280;56688;50.234;19.292;2023-03-16T00:00:47;98732.25;;;-0.73;74.97
69127;BME280;56688;50.234;19.292;2023-03-16T00:03:14;98734.87;;;-0.78;74.73
69127;BME280;56688;50.234;19.292;2023-03-16T00:05:46;98736.80;;;-0.83;75.04
69127;BME280;56688;50.234;19.292;2023-03-16T00:08:15;98741.73;;;-0.86;75.17
69127;BME280;56688;50.234;19.292;2023-03-16T00:10:42;98744.56;;;-0.87;75.36
69127;BME280;56688;50.234;19.292;2023-03-16T00:13:15;98745.36;;;-0.85;75.36
69127;BME280;56688;50.234;19.292;2023-03-16T00:15:51;98742.69;;;-0.85;75.36
69127;BME280;56688;50.234;19.292;2023-03-16T00:18:19;98743.36;;;-0.85;75.28
69127;BME280;56688;50.234;19.292;2023-03-16T00:20:50;98745.05;;;-0.86;75.14
69127;BME280;56688;50.234;19.292;2023-03-16T00:23:18;98746.35;;;-0.89;75.13
69127;BME280;56688;50.234;19.292;2023-03-16T00:25:45;98747.02;;;-0.94;75.16
69127;BME280;56688;50.234;19.292;2023-03-16T00:28:11;98743.57;;;-0.99;75.20
69127;BME280;56688;50.234;19.292;2023-03-16T00:30:39;98744.01;;;-1.05;75.21
69127;BME280;56688;50.234;19.292;2023-03-16T00:33:06;98745.40;;;-1.10;75.07
69127;BME280;56688;50.234;19.292;2023-03-16T00:35:33;98746.86;;;-1.14;75.34
69127;BME280;56688;50.234;19.292;2023-03-16T00:38:01;98746.51;;;-1.16;75.54
69127;BME280;56688;50.234;19.292;2023-03-16T00:40:29;98749.55;;;-1.17;75.60
69127;BME280;56688;50.234;19.292;2023-03-16T00:42:56;98752.16;;;-1.17;75.62
69127;BME280;56688;50.234;19.292;2023-03-16T00:45:23;98751.06;;;-1.18;75.42
69127;BME280;56688;50.234;19.292;2023-03-16T00:47:50;98753.73;;;-1.19;75.55
69127;BME280;56688;50.234;19.292;2023-03-16T00:50:19;98754.36;;;-1.21;75.73
69127;BME280;56688;50.234;19.292;2023-03-16T00:52:47;98755.94;;;-1.23;75.77
69127;BME280;56688;50.234;19.292;2023-03-16T00:55:14;98754.86;;;-1.28;75.52
69127;BME280;56688;50.234;19.292;2023-03-16T00:57:41;98756.19;;;-1.34;75.64
69127;BME280;56688;50.234;19.292;2023-03-16T01:00:09;98760.95;;;-1.40;75.55
69127;BME280;56688;50.234;19.292;2023-03-16T01:02:38;98761.41;;;-1.44;75.71
69127;BME280;56688;50.234;19.292;2023-03-16T01:05:06;98760.78;;;-1.45;75.90
69127;BME280;56688;50.234;19.292;2023-03-16T01:07:33;98760.98;;;-1.46;75.94
69127;BME280;56688;50.234;19.292;2023-03-16T01:10:02;98767.30;;;-1.45;75.87
69127;BME280;56688;50.234;19.292;2023-03-16T01:12:30;98767.23;;;-1.47;75.56
69127;BME280;56688;50.234;19.292;2023-03-16T01:14:57;98768.20;;;-1.49;75.34
69127;BME280;56688;50.234;19.292;2023-03-16T01:17:25;98769.27;;;-1.54;75.18
69127;BME280;56688;50.234;19.292;2023-03-16T01:19:52;98770.23;;;-1.60;75.28
69127;BME280;56688;50.234;19.292;2023-03-16T01:22:19;98773.00;;;-1.67;75.25
69127;BME280;56688;50.234;19.292;2023-03-16T01:24:47;98772.64;;;-1.73;75.10
69127;BME280;56688;50.234;19.292;2023-03-16T01:27:13;98781.40;;;-1.81;74.97
69127;BME280;56688;50.234;19.292;2023-03-16T01:29:41;98782.64;;;-1.89;74.90
69127;BME280;56688;50.234;19.292;2023-03-16T01:32:09;98781.36;;;-1.95;74.94
69127;BME280;56688;50.234;19.292;2023-03-16T01:34:37;98780.41;;;-2.00;74.58
69127;BME280;56688;50.234;19.292;2023-03-16T01:37:05;98781.86;;;-2.05;74.50
69127;BME280;56688;50.234;19.292;2023-03-16T01:39:39;98785.66;;;-2.10;74.10
69127;BME280;56688;50.234;19.292;2023-03-16T01:42:06;98783.86;;;-2.17;73.73
69127;BME280;56688;50.234;19.292;2023-03-16T01:44:50;98785.96;;;-2.25;73.61
69127;BME280;56688;50.234;19.292;2023-03-16T01:47:18;98783.09;;;-2.40;73.66
69127;BME280;56688;50.234;19.292;2023-03-16T01:49:44;98785.52;;;-2.56;74.19
69127;BME280;56688;50.234;19.292;2023-03-16T01:52:18;98784.77;;;-2.66;74.78
69127;BME280;56688;50.234;19.292;2023-03-16T01:54:50;98787.52;;;-2.76;74.28
69127;BME280;56688;50.234;19.292;2023-03-16T01:57:25;98793.77;;;-2.87;73.86
69127;BME280;56688;50.234;19.292;2023-03-16T02:00:03;98793.48;;;-2.96;73.93
69127;BME280;56688;50.234;19.292;2023-03-16T02:03:08;98795.55;;;-3.04;73.95
69127;BME280;56688;50.234;19.292;2023-03-16T02:05:47;98799.67;;;-3.11;73.64
69127;BME280;56688;50.234;19.292;2023-03-16T02:08:20;98805.13;;;-3.15;74.08
69127;BME280;56688;50.234;19.292;2023-03-16T02:10:48;98809.79;;;-3.17;74.21
69127;BME280;56688;50.234;19.292;2023-03-16T02:13:22;98810.81;;;-3.19;74.44
69127;BME280;56688;50.234;19.292;2023-03-16T02:15:51;98809.41;;;-3.22;74.19
69127;BME280;56688;50.234;19.292;2023-03-16T02:18:19;98808.66;;;-3.27;73.97
69127;BME280;56688;50.234;19.292;2023-03-16T02:21:00;98813.02;;;-3.33;73.95
69127;BME280;56688;50.234;19.292;2023-03-16T02:23:30;98813.25;;;-3.42;73.87
69127;BME280;56688;50.234;19.292;2023-03-16T02:28:37;98825.46;;;-3.57;74.69
69127;BME280;56688;50.234;19.292;2023-03-16T02:31:12;98828.90;;;-3.59;74.93
69127;BME280;56688;50.234;19.292;2023-03-16T02:33:40;98830.54;;;-3.60;75.02
69127;BME280;56688;50.234;19.292;2023-03-16T02:36:08;98837.05;;;-3.58;74.95
69127;BME280;56688;50.234;19.292;2023-03-16T02:38:36;98836.44;;;-3.57;75.15
69127;BME280;56688;50.234;19.292;2023-03-16T02:41:10;98837.63;;;-3.56;74.78
69127;BME280;56688;50.234;19.292;2023-03-16T02:43:42;98840.05;;;-3.59;74.74
69127;BME280;56688;50.234;19.292;2023-03-16T02:46:20;98847.19;;;-3.65;74.43
69127;BME280;56688;50.234;19.292;2023-03-16T02:48:57;98851.95;;;-3.72;74.35
69127;BME280;56688;50.234;19.292;2023-03-16T02:51:25;98854.36;;;-3.80;74.57
69127;BME280;56688;50.234;19.292;2023-03-16T02:53:53;98856.86;;;-3.84;74.76
69127;BME280;56688;50.234;19.292;2023-03-16T02:56:21;98854.89;;;-3.93;74.79
69127;BME280;56688;50.234;19.292;2023-03-16T02:58:49;98857.81;;;-3.98;74.84
69127;BME280;56688;50.234;19.292;2023-03-16T03:01:17;98860.95;;;-4.01;74.79
69127;BME280;56688;50.234;19.292;2023-03-16T03:03:43;98868.44;;;-4.01;75.11
69127;BME280;56688;50.234;19.292;2023-03-16T03:06:10;98874.10;;;-4.00;75.02
69127;BME280;56688;50.234;19.292;2023-03-16T03:08:38;98876.61;;;-3.98;75.18
69127;BME280;56688;50.234;19.292;2023-03-16T03:11:05;98877.95;;;-3.97;75.24
69127;BME280;56688;50.234;19.292;2023-03-16T03:13:34;98883.05;;;-3.95;75.56
69127;BME280;56688;50.234;19.292;2023-03-16T03:16:04;98883.48;;;-3.93;75.61
69127;BME280;56688;50.234;19.292;2023-03-16T03:18:31;98888.01;;;-3.94;75.95
69127;BME280;56688;50.234;19.292;2023-03-16T03:21:00;98893.02;;;-3.93;76.55
69127;BME280;56688;50.234;19.292;2023-03-16T03:23:27;98897.21;;;-3.94;76.98
69127;BME280;56688;50.234;19.292;2023-03-16T03:25:58;98897.51;;;-3.93;77.86
69127;BME280;56688;50.234;19.292;2023-03-16T03:28:26;98900.85;;;-3.90;78.20
69127;BME280;56688;50.234;19.292;2023-03-16T03:30:53;98905.76;;;-3.87;78.34
69127;BME280;56688;50.234;19.292;2023-03-16T03:33:20;98906.45;;;-3.84;78.61
69127;BME280;56688;50.234;19.292;2023-03-16T03:35:54;98909.35;;;-3.80;78.49
69127;BME280;56688;50.234;19.292;2023-03-16T03:38:23;98914.73;;;-3.77;78.07
69127;BME280;56688;50.234;19.292;2023-03-16T03:40:51;98913.30;;;-3.76;77.48
69127;BME280;56688;50.234;19.292;2023-03-16T03:46:02;98917.48;;;-3.85;77.71
69127;BME280;56688;50.234;19.292;2023-03-16T03:48:31;98921.17;;;-3.86;77.72
69127;BME280;56688;50.234;19.292;2023-03-16T03:50:59;98920.15;;;-3.89;77.55
69127;BME280;56688;50.234;19.292;2023-03-16T03:53:40;98924.81;;;-3.93;77.55
69127;BME280;56688;50.234;19.292;2023-03-16T03:56:22;98918.16;;;-3.95;77.38
69127;BME280;56688;50.234;19.292;2023-03-16T03:58:49;98921.15;;;-3.95;77.54
69127;BME280;56688;50.234;19.292;2023-03-16T04:01:25;98922.12;;;-3.94;77.68
69127;BME280;56688;50.234;19.292;2023-03-16T04:03:52;98926.39;;;-3.93;77.95
69127;BME280;56688;50.234;19.292;2023-03-16T04:06:19;98927.52;;;-3.91;78.01
69127;BME280;56688;50.234;19.292;2023-03-16T04:08:46;98927.42;;;-3.92;78.21
69127;BME280;56688;50.234;19.292;2023-03-16T04:11:15;98928.16;;;-3.96;78.38
69127;BME280;56688;50.234;19.292;2023-03-16T04:13:42;98929.87;;;-3.98;78.07
69127;BME280;56688;50.234;19.292;2023-03-16T04:16:10;98927.83;;;-4.02;78.30
69127;BME280;56688;50.234;19.292;2023-03-16T04:18:42;98934.70;;;-4.07;78.27
69127;BME280;56688;50.234;19.292;2023-03-16T04:21:14;98935.54;;;-4.12;78.40
69127;BME280;56688;50.234;19.292;2023-03-16T04:23:44;98938.14;;;-4.15;78.68
69127;BME280;56688;50.234;19.292;2023-03-16T04:26:12;98936.20;;;-4.18;78.52
69127;BME280;56688;50.234;19.292;2023-03-16T04:28:41;98937.64;;;-4.16;78.26
69127;BME280;56688;50.234;19.292;2023-03-16T04:31:10;98940.41;;;-4.15;78.22
69127;BME280;56688;50.234;19.292;2023-03-16T04:33:41;98945.34;;;-4.13;78.44
69127;BME280;56688;50.234;19.292;2023-03-16T04:36:08;98946.27;;;-4.11;78.57
69127;BME280;56688;50.234;19.292;2023-03-16T04:38:36;98950.87;;;-4.12;78.73
69127;BME280;56688;50.234;19.292;2023-03-16T04:41:04;98950.27;;;-4.11;78.90
69127;BME280;56688;50.234;19.292;2023-03-16T04:43:35;98955.11;;;-4.14;78.97
69127;BME280;56688;50.234;19.292;2023-03-16T04:46:08;98965.65;;;-4.16;79.14
69127;BME280;56688;50.234;19.292;2023-03-16T04:48:36;98965.66;;;-4.19;79.32
69127;BME280;56688;50.234;19.292;2023-03-16T04:51:04;98965.53;;;-4.20;78.98
69127;BME280;56688;50.234;19.292;2023-03-16T04:53:32;98965.41;;;-4.21;78.73
69127;BME280;56688;50.234;19.292;2023-03-16T04:56:06;98971.84;;;-4.21;78.77
69127;BME280;56688;50.234;19.292;2023-03-16T04:58:34;98974.42;;;-4.20;78.36
69127;BME280;56688;50.234;19.292;2023-03-16T05:01:02;98970.70;;;-4.19;78.41
69127;BME280;56688;50.234;19.292;2023-03-16T05:03:30;98977.14;;;-4.19;77.87
69127;BME280;56688;50.234;19.292;2023-03-16T05:06:01;98976.60;;;-4.22;77.92
69127;BME280;56688;50.234;19.292;2023-03-16T05:08:30;98977.35;;;-4.30;77.82
69127;BME280;56688;50.234;19.292;2023-03-16T05:10:58;98978.39;;;-4.36;78.14
69127;BME280;56688;50.234;19.292;2023-03-16T05:13:27;98979.35;;;-4.40;78.16
69127;BME280;56688;50.234;19.292;2023-03-16T05:15:56;98980.13;;;-4.42;77.99
69127;BME280;56688;50.234;19.292;2023-03-16T05:18:28;98982.73;;;-4.42;78.10
69127;BME280;56688;50.234;19.292;2023-03-16T05:20:55;98984.17;;;-4.40;78.15
69127;BME280;56688;50.234;19.292;2023-03-16T05:23:24;98979.45;;;-4.33;78.32
69127;BME280;56688;50.234;19.292;2023-03-16T05:25:55;98981.39;;;-4.24;78.40
69127;BME280;56688;50.234;19.292;2023-03-16T05:28:26;98986.11;;;-4.18;78.34
69127;BME280;56688;50.234;19.292;2023-03-16T05:30:58;98986.11;;;-4.08;78.86
69127;BME280;56688;50.234;19.292;2023-03-16T05:33:26;98986.16;;;-4.00;78.63
69127;BME280;56688;50.234;19.292;2023-03-16T05:35:59;98986.52;;;-3.90;78.44
69127;BME280;56688;50.234;19.292;2023-03-16T05:38:29;98987.27;;;-3.85;78.06
69127;BME280;56688;50.234;19.292;2023-03-16T05:40:57;98987.55;;;-3.81;77.91
69127;BME280;56688;50.234;19.292;2023-03-16T05:43:46;98987.89;;;-3.78;77.98
69127;BME280;56688;50.234;19.292;2023-03-16T05:46:14;98992.63;;;-3.73;78.00
69127;BME280;56688;50.234;19.292;2023-03-16T05:48:41;98996.34;;;-3.65;78.44
69127;BME280;56688;50.234;19.292;2023-03-16T05:51:10;98996.41;;;-3.53;78.67
69127;BME280;56688;50.234;19.292;2023-03-16T05:53:40;99002.77;;;-3.37;79.26
69127;BME280;56688;50.234;19.292;2023-03-16T05:56:14;99003.98;;;-3.22;79.40
69127;BME280;56688;50.234;19.292;2023-03-16T05:58:42;99007.84;;;-3.08;79.52
69127;BME280;56688;50.234;19.292;2023-03-16T06:01:09;99009.86;;;-2.92;79.66
69127;BME280;56688;50.234;19.292;2023-03-16T06:03:39;99010.90;;;-2.74;79.59
69127;BME280;56688;50.234;19.292;2023-03-16T06:06:08;99013.27;;;-2.59;79.29
69127;BME280;56688;50.234;19.292;2023-03-16T06:08:46;99020.33;;;-2.43;79.10
69127;BME280;56688;50.234;19.292;2023-03-16T06:11:14;99018.70;;;-2.30;79.32
69127;BME280;56688;50.234;19.292;2023-03-16T06:13:43;99018.23;;;-2.12;79.57
69127;BME280;56688;50.234;19.292;2023-03-16T06:16:11;99018.67;;;-1.91;79.65
69127;BME280;56688;50.234;19.292;2023-03-16T06:18:40;99022.55;;;-1.67;79.82
69127;BME280;56688;50.234;19.292;2023-03-16T06:21:07;99021.59;;;-1.36;80.22
69127;BME280;56688;50.234;19.292;2023-03-16T06:23:34;99027.35;;;-0.99;80.45
69127;BME280;56688;50.234;19.292;2023-03-16T06:26:02;99031.77;;;-0.57;80.77
69127;BME280;56688;50.234;19.292;2023-03-16T06:28:30;99032.69;;;-0.07;80.91
69127;BME280;56688;50.234;19.292;2023-03-16T06:30:57;99029.14;;;0.38;80.13
69127;BME280;56688;50.234;19.292;2023-03-16T06:33:27;99027.00;;;0.74;78.89
69127;BME280;56688;50.234;19.292;2023-03-16T06:35:55;99023.11;;;1.05;77.77
69127;BME280;56688;50.234;19.292;2023-03-16T06:38:29;99023.45;;;1.35;76.78
69127;BME280;56688;50.234;19.292;2023-03-16T06:41:10;99030.55;;;1.75;75.56
69127;BME280;56688;50.234;19.292;2023-03-16T06:43:37;99032.83;;;2.10;73.82
69127;BME280;56688;50.234;19.292;2023-03-16T06:46:04;99032.04;;;2.49;72.68
69127;BME280;56688;50.234;19.292;2023-03-16T06:48:31;99034.14;;;2.89;70.93
69127;BME280;56688;50.234;19.292;2023-03-16T06:50:58;99035.87;;;3.24;68.57
69127;BME280;56688;50.234;19.292;2023-03-16T06:53:26;99036.55;;;3.51;67.13
69127;BME280;56688;50.234;19.292;2023-03-16T06:55:54;99038.93;;;3.83;66.41
69127;BME280;56688;50.234;19.292;2023-03-16T06:58:21;99037.84;;;4.15;65.16
69127;BME280;56688;50.234;19.292;2023-03-16T07:00:48;99037.56;;;4.52;64.16
69127;BME280;56688;50.234;19.292;2023-03-16T07:03:15;99041.86;;;4.83;63.06
69127;BME280;56688;50.234;19.292;2023-03-16T07:05:46;99043.09;;;5.18;61.27
69127;BME280;56688;50.234;19.292;2023-03-16T07:08:14;99048.13;;;5.44;60.02
69127;BME280;56688;50.234;19.292;2023-03-16T07:10:41;99049.00;;;5.74;59.05
69127;BME280;56688;50.234;19.292;2023-03-16T07:13:07;99052.02;;;5.91;58.42
69127;BME280;56688;50.234;19.292;2023-03-16T07:15:34;99055.27;;;6.03;57.22
69127;BME280;56688;50.234;19.292;2023-03-16T07:18:02;99053.77;;;6.13;56.97
69127;BME280;56688;50.234;19.292;2023-03-16T07:20:29;99049.95;;;6.33;56.55
69127;BME280;56688;50.234;19.292;2023-03-16T07:23:00;99052.89;;;6.59;56.16
69127;BME280;56688;50.234;19.292;2023-03-16T07:25:27;99050.93;;;6.88;55.02
69127;BME280;56688;50.234;19.292;2023-03-16T07:27:54;99054.63;;;7.13;53.99
69127;BME280;56688;50.234;19.292;2023-03-16T07:30:26;99056.38;;;7.25;52.97
69127;BME280;56688;50.234;19.292;2023-03-16T07:32:54;99056.80;;;7.32;52.22
69127;BME280;56688;50.234;19.292;2023-03-16T07:35:22;99065.35;;;7.37;51.94
69127;BME280;56688;50.234;19.292;2023-03-16T07:37:50;99065.98;;;7.53;52.01
69127;BME280;56688;50.234;19.292;2023-03-16T07:40:17;99070.86;;;7.84;51.26
69127;BME280;56688;50.234;19.292;2023-03-16T07:42:44;99073.95;;;8.12;50.52
69127;BME280;56688;50.234;19.292;2023-03-16T07:45:14;99069.23;;;8.44;50.44
69127;BME280;56688;50.234;19.292;2023-03-16T07:47:44;99063.84;;;8.87;49.91
69127;BME280;56688;50.234;19.292;2023-03-16T07:50:17;99067.01;;;9.20;48.55
69127;BME280;56688;50.234;19.292;2023-03-16T07:52:46;99068.68;;;9.63;47.41
69127;BME280;56688;50.234;19.292;2023-03-16T07:55:13;99064.48;;;10.15;46.54
69127;BME280;56688;50.234;19.292;2023-03-16T07:57:41;99066.33;;;10.67;45.42
69127;BME280;56688;50.234;19.292;2023-03-16T08:00:23;99059.67;;;11.20;44.59
69127;BME280;56688;50.234;19.292;2023-03-16T08:02:51;99061.69;;;11.90;42.83
69127;BME280;56688;50.234;19.292;2023-03-16T08:05:19;99058.36;;;12.49;41.41
69127;BME280;56688;50.234;19.292;2023-03-16T08:07:49;99057.00;;;12.73;40.03
69127;BME280;56688;50.234;19.292;2023-03-16T08:10:21;99057.77;;;12.97;39.70
69127;BME280;56688;50.234;19.292;2023-03-16T08:12:53;99058.09;;;13.13;39.12
69127;BME280;56688;50.234;19.292;2023-03-16T08:15:20;99058.84;;;13.40;39.37
69127;BME280;56688;50.234;19.292;2023-03-16T08:17:48;99056.09;;;14.14;37.38
69127;BME280;56688;50.234;19.292;2023-03-16T08:20:19;99054.83;;;14.81;36.18
69127;BME280;56688;50.234;19.292;2023-03-16T08:22:46;99053.70;;;15.25;35.43
69127;BME280;56688;50.234;19.292;2023-03-16T08:25:18;99059.30;;;15.66;33.98
69127;BME280;56688;50.234;19.292;2023-03-16T08:27:53;99062.98;;;15.59;33.57
69127;BME280;56688;50.234;19.292;2023-03-16T08:30:20;99065.31;;;15.15;34.15
69127;BME280;56688;50.234;19.292;2023-03-16T08:32:55;99069.33;;;14.63;34.81
69127;BME280;56688;50.234;19.292;2023-03-16T08:35:23;99070.71;;;14.57;35.25
69127;BME280;56688;50.234;19.292;2023-03-16T08:37:50;99069.37;;;14.43;34.90
69127;BME280;56688;50.234;19.292;2023-03-16T08:40:17;99070.92;;;13.99;35.55
69127;BME280;56688;50.234;19.292;2023-03-16T08:42:45;99071.98;;;14.07;36.24
69127;BME280;56688;50.234;19.292;2023-03-16T08:45:12;99066.29;;;14.44;35.56
69127;BME280;56688;50.234;19.292;2023-03-16T08:47:40;99065.83;;;14.58;34.45
69127;BME280;56688;50.234;19.292;2023-03-16T08:50:09;99069.56;;;14.26;33.96
69127;BME280;56688;50.234;19.292;2023-03-16T08:52:38;99074.05;;;13.76;34.21
69127;BME280;56688;50.234;19.292;2023-03-16T08:55:07;99072.70;;;13.38;35.31
69127;BME280;56688;50.234;19.292;2023-03-16T08:57:36;99075.06;;;13.12;35.79
69127;BME280;56688;50.234;19.292;2023-03-16T09:00:05;99081.48;;;12.96;35.80
69127;BME280;56688;50.234;19.292;2023-03-16T09:02:40;99084.70;;;12.88;36.24
69127;BME280;56688;50.234;19.292;2023-03-16T09:05:09;99085.48;;;12.89;37.34
69127;BME280;56688;50.234;19.292;2023-03-16T09:07:37;99086.76;;;12.99;37.05
69127;BME280;56688;50.234;19.292;2023-03-16T09:10:06;99084.95;;;12.74;36.71
69127;BME280;56688;50.234;19.292;2023-03-16T09:12:34;99086.90;;;12.41;37.18
69127;BME280;56688;50.234;19.292;2023-03-16T09:15:02;99092.02;;;12.20;38.46
69127;BME280;56688;50.234;19.292;2023-03-16T09:17:29;99095.61;;;11.94;38.87
69127;BME280;56688;50.234;19.292;2023-03-16T09:19:56;99089.67;;;11.50;38.67
69127;BME280;56688;50.234;19.292;2023-03-16T09:22:40;99090.89;;;10.75;39.67
69127;BME280;56688;50.234;19.292;2023-03-16T09:25:08;99097.52;;;10.13;40.95
69127;BME280;56688;50.234;19.292;2023-03-16T09:27:36;99100.92;;;9.82;42.30
69127;BME280;56688;50.234;19.292;2023-03-16T09:30:05;99098.69;;;9.70;42.64
69127;BME280;56688;50.234;19.292;2023-03-16T09:32:33;99096.64;;;9.85;42.71
69127;BME280;56688;50.234;19.292;2023-03-16T09:35:04;99099.77;;;10.05;43.02
69127;BME280;56688;50.234;19.292;2023-03-16T09:37:32;99089.92;;;10.65;42.85
69127;BME280;56688;50.234;19.292;2023-03-16T09:40:24;99090.73;;;11.28;40.64
69127;BME280;56688;50.234;19.292;2023-03-16T09:48:18;99102.39;;;11.22;37.57
69127;BME280;56688;50.234;19.292;2023-03-16T09:50:46;99106.46;;;10.90;38.28
69127;BME280;56688;50.234;19.292;2023-03-16T09:56:01;99106.31;;;10.07;39.31
69127;BME280;56688;50.234;19.292;2023-03-16T09:58:29;99112.04;;;9.59;39.60
69127;BME280;56688;50.234;19.292;2023-03-16T10:06:23;99106.00;;;9.62;41.86
69127;BME280;56688;50.234;19.292;2023-03-16T10:08:57;99111.86;;;9.70;42.05
69127;BME280;56688;50.234;19.292;2023-03-16T10:11:33;99116.40;;;9.74;41.35
69127;BME280;56688;50.234;19.292;2023-03-16T10:19:42;99124.95;;;8.80;41.21
69127;BME280;56688;50.234;19.292;2023-03-16T10:22:18;99123.86;;;8.75;42.40
69127;BME280;56688;50.234;19.292;2023-03-16T10:25:11;99126.41;;;8.84;41.99
69127;BME280;56688;50.234;19.292;2023-03-16T10:27:43;99127.25;;;8.94;41.58
69127;BME280;56688;50.234;19.292;2023-03-16T10:30:27;99125.35;;;8.81;40.06
69127;BME280;56688;50.234;19.292;2023-03-16T10:33:00;99127.13;;;8.40;40.58
69127;BME280;56688;50.234;19.292;2023-03-16T10:38:07;99126.52;;;8.32;41.80
69127;BME280;56688;50.234;19.292;2023-03-16T10:40:37;99117.39;;;8.55;42.06
69127;BME280;56688;50.234;19.292;2023-03-16T10:43:10;99127.90;;;8.59;41.35
69127;BME280;56688;50.234;19.292;2023-03-16T10:45:41;99128.69;;;8.51;41.22
69127;BME280;56688;50.234;19.292;2023-03-16T10:48:14;99130.25;;;8.50;41.31
69127;BME280;56688;50.234;19.292;2023-03-16T10:50:42;99129.64;;;8.39;42.30
69127;BME280;56688;50.234;19.292;2023-03-16T10:53:21;99130.27;;;8.27;42.35
69127;BME280;56688;50.234;19.292;2023-03-16T10:55:49;99129.54;;;8.18;43.51
69127;BME280;56688;50.234;19.292;2023-03-16T10:58:32;99132.10;;;8.21;43.62
69127;BME280;56688;50.234;19.292;2023-03-16T11:01:01;99133.11;;;8.50;42.50
69127;BME280;56688;50.234;19.292;2023-03-16T11:03:31;99129.02;;;8.85;41.54
69127;BME280;56688;50.234;19.292;2023-03-16T11:06:06;99121.30;;;9.19;39.53
69127;BME280;56688;50.234;19.292;2023-03-16T11:08:36;99119.92;;;9.37;39.01
69127;BME280;56688;50.234;19.292;2023-03-16T11:11:10;99119.29;;;9.26;39.13
69127;BME280;56688;50.234;19.292;2023-03-16T11:13:44;99122.48;;;9.10;40.03
69127;BME280;56688;50.234;19.292;2023-03-16T11:22:04;99126.46;;;9.01;39.93
69127;BME280;56688;50.234;19.292;2023-03-16T11:24:51;99128.51;;;8.90;40.23
69127;BME280;56688;50.234;19.292;2023-03-16T11:27:24;99131.37;;;8.70;40.25
69127;BME280;56688;50.234;19.292;2023-03-16T11:32:37;99123.14;;;8.70;41.40
69127;BME280;56688;50.234;19.292;2023-03-16T11:35:22;99121.60;;;8.86;40.04
69127;BME280;56688;50.234;19.292;2023-03-16T11:37:59;99112.55;;;9.23;40.00
69127;BME280;56688;50.234;19.292;2023-03-16T11:40:37;99114.15;;;9.65;38.25
69127;BME280;56688;50.234;19.292;2023-03-16T11:51:24;99107.60;;;10.13;36.50
69127;BME280;56688;50.234;19.292;2023-03-16T11:56:35;99105.20;;;9.90;39.33
69127;BME280;56688;50.234;19.292;2023-03-16T12:12:38;99090.48;;;10.82;36.27
69127;BME280;56688;50.234;19.292;2023-03-16T12:15:31;99084.82;;;11.15;35.54
69127;BME280;56688;50.234;19.292;2023-03-16T12:18:04;99084.52;;;11.75;33.71
69127;BME280;56688;50.234;19.292;2023-03-16T12:20:52;99089.08;;;12.00;33.06
69127;BME280;56688;50.234;19.292;2023-03-16T12:23:25;99092.27;;;11.99;33.35
69127;BME280;56688;50.234;19.292;2023-03-16T12:25:56;99087.45;;;11.90;33.67
69127;BME280;56688;50.234;19.292;2023-03-16T12:28:27;99087.92;;;11.75;34.47
69127;BME280;56688;50.234;19.292;2023-03-16T12:31:03;99089.23;;;11.58;34.71
69127;BME280;56688;50.234;19.292;2023-03-16T12:33:44;99088.47;;;11.23;34.34
69127;BME280;56688;50.234;19.292;2023-03-16T12:38:44;99089.64;;;10.50;35.20
69127;BME280;56688;50.234;19.292;2023-03-16T12:46:27;99096.52;;;9.58;36.30
69127;BME280;56688;50.234;19.292;2023-03-16T12:49:00;99095.83;;;9.41;37.20
69127;BME280;56688;50.234;19.292;2023-03-16T12:51:32;99096.65;;;9.25;36.74
69127;BME280;56688;50.234;19.292;2023-03-16T12:53:59;99097.44;;;9.16;38.08
69127;BME280;56688;50.234;19.292;2023-03-16T12:56:43;99098.27;;;9.43;37.95
69127;BME280;56688;50.234;19.292;2023-03-16T12:59:16;99096.59;;;9.62;37.07
69127;BME280;56688;50.234;19.292;2023-03-16T13:01:48;99096.66;;;9.68;36.80
69127;BME280;56688;50.234;19.292;2023-03-16T13:04:19;99092.67;;;9.73;36.67
69127;BME280;56688;50.234;19.292;2023-03-16T13:06:49;99093.14;;;9.80;36.50
69127;BME280;56688;50.234;19.292;2023-03-16T13:09:23;99095.60;;;9.87;36.61
69127;BME280;56688;50.234;19.292;2023-03-16T13:11:51;99097.55;;;9.77;37.01
69127;BME280;56688;50.234;19.292;2023-03-16T13:17:04;99100.77;;;9.67;37.44
69127;BME280;56688;50.234;19.292;2023-03-16T13:19:32;99101.92;;;9.63;37.08
69127;BME280;56688;50.234;19.292;2023-03-16T13:22:23;99099.42;;;9.62;37.06
69127;BME280;56688;50.234;19.292;2023-03-16T13:24:54;99103.15;;;9.65;37.01
69127;BME280;56688;50.234;19.292;2023-03-16T13:27:27;99101.86;;;9.56;37.30
69127;BME280;56688;50.234;19.292;2023-03-16T13:29:58;99100.86;;;9.32;37.56
69127;BME280;56688;50.234;19.292;2023-03-16T13:32:29;99092.67;;;9.17;37.21
69127;BME280;56688;50.234;19.292;2023-03-16T13:34:59;99096.70;;;9.08;37.48
69127;BME280;56688;50.234;19.292;2023-03-16T13:37:28;99096.17;;;9.05;37.93
69127;BME280;56688;50.234;19.292;2023-03-16T13:39:58;99102.60;;;9.05;37.99
69127;BME280;56688;50.234;19.292;2023-03-16T13:42:29;99104.48;;;9.02;37.86
69127;BME280;56688;50.234;19.292;2023-03-16T13:44:58;99102.70;;;8.89;38.69
69127;BME280;56688;50.234;19.292;2023-03-16T13:47:29;99105.58;;;8.67;39.14
69127;BME280;56688;50.234;19.292;2023-03-16T13:49:58;99106.94;;;8.47;38.94
69127;BME280;56688;50.234;19.292;2023-03-16T13:52:29;99108.60;;;8.41;38.85
69127;BME280;56688;50.234;19.292;2023-03-16T13:54:58;99109.54;;;8.43;38.89
69127;BME280;56688;50.234;19.292;2023-03-16T13:57:27;99107.07;;;8.42;38.91
69127;BME280;56688;50.234;19.292;2023-03-16T14:02:41;99099.38;;;8.19;39.44
69127;BME280;56688;50.234;19.292;2023-03-16T14:05:15;99099.61;;;8.07;39.99
69127;BME280;56688;50.234;19.292;2023-03-16T14:07:47;99099.27;;;8.06;39.61
69127;BME280;56688;50.234;19.292;2023-03-16T14:10:14;99097.83;;;8.07;39.29
69127;BME280;56688;50.234;19.292;2023-03-16T14:15:18;99099.41;;;8.25;39.97
69127;BME280;56688;50.234;19.292;2023-03-16T14:17:46;99099.85;;;8.28;39.76
69127;BME280;56688;50.234;19.292;2023-03-16T14:20:20;99099.34;;;8.31;39.39
69127;BME280;56688;50.234;19.292;2023-03-16T14:22:50;99097.84;;;8.44;39.34
69127;BME280;56688;50.234;19.292;2023-03-16T14:25:21;99095.62;;;8.74;38.62